Terminal Aerodrome Forecast
Issued by NWS

Home | Current Version | Previous Version | Text Only | Print | Product List | Glossary On
Versions: 1 2 3 4 5 6 7 8 9 10 11 12 13 14 15 16 17 18 19 20 21 22
000
FTUS43 KDLH 270521
TAFHYR
TAF
KHYR 270521Z 2706/2806 00000KT 1/2SM FG VV002
      TEMPO 2706/2710 2SM BR SCT002 SCT080
     FM271000 00000KT 3SM BR SCT080
     FM271300 23004KT P6SM SCT120
     FM280100 21003KT P6SM BKN120=

USA.gov is the U.S. government's official web portal to all federal, state and local government web resources and services.